createdAt,value
2023-05-14T00:01:19.546Z,2.72
2023-05-14T00:03:46.117Z,2.78
2023-05-14T00:06:12.656Z,3.20
2023-05-14T00:08:39.094Z,2.63
2023-05-14T00:11:05.820Z,2.72
2023-05-14T00:13:32.337Z,2.55
2023-05-14T00:15:58.851Z,2.38
2023-05-14T00:18:25.434Z,2.70
2023-05-14T00:20:54.634Z,2.40
2023-05-14T00:23:22.223Z,2.80
2023-05-14T00:25:48.702Z,3.05
2023-05-14T00:28:15.316Z,2.75
2023-05-14T00:30:42.010Z,3.17
2023-05-14T00:33:08.829Z,2.65
2023-05-14T00:35:35.737Z,2.78
2023-05-14T00:38:02.799Z,2.65
2023-05-14T00:40:29.373Z,2.60
2023-05-14T00:42:56.240Z,2.65
2023-05-14T00:45:23.032Z,2.97
2023-05-14T00:47:50.084Z,2.83
2023-05-14T00:50:16.667Z,2.85
2023-05-14T00:52:43.219Z,2.88
2023-05-14T00:55:12.884Z,2.90
2023-05-14T00:57:39.476Z,3.08
2023-05-14T01:00:06.648Z,2.80
2023-05-14T01:02:33.568Z,2.90
2023-05-14T01:05:00.597Z,2.95
2023-05-14T01:07:32.163Z,2.70
2023-05-14T01:10:05.350Z,3.22
2023-05-14T01:13:06.273Z,3.13
2023-05-14T01:15:34.219Z,3.00
2023-05-14T01:18:11.469Z,3.10
2023-05-14T01:20:37.932Z,3.00
2023-05-14T01:23:04.452Z,2.92
2023-05-14T01:25:31.486Z,2.75
2023-05-14T01:28:06.854Z,2.95
2023-05-14T01:30:36.135Z,3.40
2023-05-14T01:35:30.708Z,3.10
2023-05-14T01:37:59.855Z,3.47
2023-05-14T01:40:27.128Z,3.53
2023-05-14T01:42:54.526Z,3.30
2023-05-14T01:45:21.906Z,3.50
2023-05-14T01:47:48.581Z,3.67
2023-05-14T01:50:15.852Z,3.25
2023-05-14T01:52:42.377Z,3.47
2023-05-14T01:55:09.292Z,3.67
2023-05-14T01:57:36.091Z,4.00
2023-05-14T02:00:04.117Z,4.10
2023-05-14T02:02:40.641Z,4.10
2023-05-14T02:05:11.049Z,4.32
2023-05-14T02:10:04.831Z,4.07
2023-05-14T02:12:31.333Z,4.30
2023-05-14T02:14:57.812Z,4.35
2023-05-14T02:17:26.870Z,4.43
2023-05-14T02:19:54.200Z,4.45
2023-05-14T02:22:20.715Z,4.20
2023-05-14T02:24:47.159Z,4.60
2023-05-14T02:27:13.687Z,4.45
2023-05-14T02:29:40.193Z,4.30
2023-05-14T02:32:07.122Z,4.72
2023-05-14T02:34:34.472Z,4.00
2023-05-14T02:37:01.181Z,4.28
2023-05-14T02:39:27.859Z,4.28
2023-05-14T02:41:54.709Z,4.35
2023-05-14T02:44:21.248Z,4.18
2023-05-14T02:46:47.833Z,4.70
2023-05-14T02:49:14.529Z,4.15
2023-05-14T02:51:40.990Z,4.38
2023-05-14T02:54:07.680Z,4.45
2023-05-14T02:56:34.164Z,4.30
2023-05-14T02:59:00.644Z,4.60
2023-05-14T03:01:28.021Z,4.43
2023-05-14T03:03:55.364Z,4.57
2023-05-14T03:06:21.880Z,4.20
2023-05-14T03:08:48.365Z,4.63
2023-05-14T03:11:14.871Z,4.18
2023-05-14T03:13:41.458Z,4.30
2023-05-14T03:16:08.164Z,4.18
2023-05-14T03:18:36.468Z,4.32
2023-05-14T03:21:03.925Z,4.80
2023-05-14T03:23:31.947Z,4.40
2023-05-14T03:25:58.802Z,4.07
2023-05-14T03:28:25.866Z,4.03
2023-05-14T03:30:52.573Z,4.07
2023-05-14T03:33:19.371Z,4.35
2023-05-14T03:35:46.108Z,4.15
2023-05-14T03:38:12.670Z,4.50
2023-05-14T03:40:39.161Z,4.20
2023-05-14T03:43:05.895Z,4.18
2023-05-14T03:45:33.186Z,4.28
2023-05-14T03:47:59.852Z,4.35
2023-05-14T03:50:26.660Z,4.80
2023-05-14T03:52:53.570Z,4.20
2023-05-14T03:55:20.328Z,4.63
2023-05-14T03:57:48.120Z,4.68
2023-05-14T04:00:15.382Z,4.20
2023-05-14T04:02:44.884Z,4.45
2023-05-14T04:05:11.482Z,4.30
2023-05-14T04:07:38.090Z,4.30
2023-05-14T04:10:04.968Z,4.47
2023-05-14T04:12:34.090Z,4.80
2023-05-14T04:15:01.090Z,4.78
2023-05-14T04:17:27.671Z,4.65
2023-05-14T04:19:54.173Z,4.18
2023-05-14T04:22:20.642Z,3.95
2023-05-14T04:24:47.232Z,4.40
2023-05-14T04:27:21.041Z,4.30
2023-05-14T04:29:48.318Z,4.28
2023-05-14T04:32:14.843Z,4.72
2023-05-14T04:34:41.287Z,4.50
2023-05-14T04:37:08.026Z,4.60
2023-05-14T04:39:34.555Z,4.30
2023-05-14T04:42:01.138Z,4.40
2023-05-14T04:44:27.682Z,4.60
2023-05-14T04:46:54.183Z,4.50
2023-05-14T04:49:21.041Z,4.28
2023-05-14T04:51:48.222Z,3.92
2023-05-14T04:54:14.834Z,4.20
2023-05-14T04:56:41.313Z,4.60
2023-05-14T04:59:07.783Z,4.25
2023-05-14T05:01:34.369Z,4.80
2023-05-14T05:04:00.966Z,3.78
2023-05-14T05:06:27.562Z,4.47
2023-05-14T05:08:54.072Z,4.72
2023-05-14T05:11:21.299Z,4.60
2023-05-14T05:13:47.738Z,4.07
2023-05-14T05:16:14.411Z,4.47
2023-05-14T05:18:41.211Z,4.38
2023-05-14T05:21:07.832Z,4.50
2023-05-14T05:23:34.395Z,4.32
2023-05-14T05:26:01.135Z,4.45
2023-05-14T05:28:27.707Z,4.03
2023-05-14T05:30:54.435Z,4.43
2023-05-14T05:33:21.304Z,4.40
2023-05-14T05:35:48.951Z,3.92
2023-05-14T05:38:18.083Z,4.03
2023-05-14T05:40:44.924Z,3.97
2023-05-14T05:43:13.951Z,4.22
2023-05-14T05:45:41.702Z,4.68
2023-05-14T05:48:08.503Z,3.97
2023-05-14T05:50:35.591Z,4.32
2023-05-14T05:53:02.292Z,3.90
2023-05-14T05:55:29.615Z,4.57
2023-05-14T05:57:56.452Z,3.90
2023-05-14T06:00:23.919Z,3.88
2023-05-14T06:02:52.208Z,3.95
2023-05-14T06:05:19.502Z,3.95
2023-05-14T06:07:45.982Z,3.92
2023-05-14T06:10:12.505Z,3.92
2023-05-14T06:12:38.995Z,3.80
2023-05-14T06:15:06.352Z,3.90
2023-05-14T06:17:32.889Z,3.30
2023-05-14T06:19:59.460Z,4.03
2023-05-14T06:22:25.895Z,3.53
2023-05-14T06:24:52.370Z,3.67
2023-05-14T06:27:18.958Z,3.00
2023-05-14T06:29:45.453Z,3.30
2023-05-14T06:32:15.275Z,3.90
2023-05-14T06:34:42.546Z,3.72
2023-05-14T06:37:09.912Z,3.30
2023-05-14T06:39:37.392Z,3.75
2023-05-14T06:42:04.394Z,3.45
2023-05-14T06:44:31.216Z,3.58
2023-05-14T06:46:57.697Z,3.50
2023-05-14T06:49:24.264Z,3.42
2023-05-14T06:51:50.782Z,3.70
2023-05-14T06:54:17.405Z,3.80
2023-05-14T06:56:44.117Z,3.80
2023-05-14T06:59:10.714Z,3.78
2023-05-14T07:01:37.338Z,3.75
2023-05-14T07:04:04.029Z,3.75
2023-05-14T07:06:30.767Z,3.80
2023-05-14T07:08:57.218Z,3.72
2023-05-14T07:11:23.688Z,3.90
2023-05-14T07:13:50.285Z,3.80
2023-05-14T07:16:17.850Z,3.60
2023-05-14T07:18:45.378Z,3.50
2023-05-14T07:21:12.142Z,3.85
2023-05-14T07:23:38.655Z,3.70
2023-05-14T07:26:07.550Z,3.63
2023-05-14T07:28:34.304Z,3.35
2023-05-14T07:31:00.946Z,3.65
2023-05-14T07:33:27.530Z,3.50
2023-05-14T07:35:54.172Z,3.92
2023-05-14T07:38:20.876Z,3.95
2023-05-14T07:40:47.307Z,4.38
2023-05-14T07:43:14.297Z,3.83
2023-05-14T07:45:40.781Z,3.80
2023-05-14T07:48:07.370Z,3.42
2023-05-14T07:50:34.004Z,3.80
2023-05-14T07:53:00.594Z,4.03
2023-05-14T07:55:27.012Z,3.60
2023-05-14T07:57:53.493Z,3.80
2023-05-14T08:00:20.109Z,4.72
2023-05-14T08:02:46.684Z,7.57
2023-05-14T08:05:13.473Z,4.43
2023-05-14T08:07:39.972Z,4.15
2023-05-14T08:10:07.577Z,3.83
2023-05-14T08:12:34.093Z,3.67
2023-05-14T08:15:00.592Z,4.10
2023-05-14T08:17:27.123Z,4.00
2023-05-14T08:19:53.988Z,4.22
2023-05-14T08:22:20.550Z,3.83
2023-05-14T08:24:46.999Z,4.40
2023-05-14T08:27:13.440Z,3.70
2023-05-14T08:29:39.902Z,4.20
2023-05-14T08:32:19.310Z,4.30
2023-05-14T08:34:48.980Z,4.35
2023-05-14T08:37:15.459Z,3.80
2023-05-14T08:39:41.907Z,4.20
2023-05-14T08:42:11.110Z,4.63
2023-05-14T08:49:47.033Z,4.80
2023-05-14T08:52:13.528Z,3.97
2023-05-14T08:54:40.580Z,4.30
2023-05-14T08:57:09.892Z,4.13
2023-05-14T08:59:36.600Z,4.10
2023-05-14T09:02:04.992Z,4.70
2023-05-14T09:04:32.370Z,3.95
2023-05-14T09:07:00.248Z,4.35
2023-05-14T09:09:27.360Z,4.25
2023-05-14T09:11:54.177Z,3.83
2023-05-14T09:14:21.923Z,3.70
2023-05-14T09:16:49.805Z,5.45
2023-05-14T09:19:19.162Z,3.75
2023-05-14T09:21:47.085Z,3.90
2023-05-14T09:24:21.361Z,4.78
2023-05-14T09:26:51.145Z,3.55
2023-05-14T09:29:17.596Z,4.95
2023-05-14T09:31:44.026Z,3.72
2023-05-14T09:34:10.857Z,3.53
2023-05-14T09:36:37.292Z,3.60
2023-05-14T09:39:04.297Z,4.10
2023-05-14T09:41:30.742Z,5.00
2023-05-14T09:43:57.809Z,3.92
2023-05-14T09:46:24.293Z,5.38
2023-05-14T09:48:50.780Z,4.78
2023-05-14T09:51:20.872Z,3.33
2023-05-14T09:53:47.344Z,3.20
2023-05-14T09:56:14.622Z,3.15
2023-05-14T09:58:41.145Z,2.60
2023-05-14T10:01:07.754Z,2.55
2023-05-14T10:03:34.411Z,3.53
2023-05-14T10:06:05.322Z,3.65
2023-05-14T10:08:36.076Z,4.18
2023-05-14T10:11:06.904Z,3.05
2023-05-14T10:13:38.995Z,3.13
2023-05-14T10:16:13.183Z,2.90
2023-05-14T10:18:48.340Z,2.92
2023-05-14T10:21:15.618Z,2.92
2023-05-14T10:23:42.720Z,3.55
2023-05-14T10:26:09.717Z,2.45
2023-05-14T10:28:36.620Z,2.90
2023-05-14T10:31:03.666Z,3.30
2023-05-14T10:33:30.302Z,2.58
2023-05-14T10:36:02.033Z,2.90
2023-05-14T10:38:29.851Z,6.60
2023-05-14T10:41:01.287Z,3.40
2023-05-14T10:43:31.443Z,4.90
2023-05-14T10:45:59.844Z,3.20
2023-05-14T10:48:26.816Z,2.47
2023-05-14T10:50:53.734Z,3.55
2023-05-14T10:53:21.067Z,2.85
2023-05-14T10:55:47.483Z,2.50
2023-05-14T10:58:14.756Z,2.50
2023-05-14T11:00:41.218Z,3.22
2023-05-14T11:03:07.716Z,2.20
2023-05-14T11:05:37.171Z,2.30
2023-05-14T11:08:07.694Z,2.35
2023-05-14T11:10:35.552Z,2.78
2023-05-14T11:13:02.162Z,3.45
2023-05-14T11:15:29.023Z,2.72
2023-05-14T11:17:55.622Z,2.47
2023-05-14T11:20:22.268Z,2.50
2023-05-14T11:22:51.377Z,2.63
2023-05-14T11:25:18.690Z,2.72
2023-05-14T11:27:46.888Z,2.60
2023-05-14T11:30:16.760Z,5.50
2023-05-14T11:32:48.024Z,2.83
2023-05-14T11:35:15.336Z,2.78
2023-05-14T11:37:42.695Z,2.72
2023-05-14T11:40:16.074Z,3.00
2023-05-14T11:42:42.506Z,2.65
2023-05-14T11:45:13.120Z,2.53
2023-05-14T11:47:41.603Z,2.40
2023-05-14T11:50:09.537Z,2.40
2023-05-14T11:52:40.848Z,2.17
2023-05-14T11:55:12.080Z,3.22
2023-05-14T11:57:38.529Z,2.78
2023-05-14T12:00:09.087Z,2.53
2023-05-14T12:02:36.242Z,2.72
2023-05-14T12:05:02.776Z,2.50
2023-05-14T12:07:30.090Z,3.60
2023-05-14T12:10:01.358Z,3.00
2023-05-14T12:12:28.049Z,2.42
2023-05-14T12:14:54.475Z,2.50
2023-05-14T12:17:22.620Z,2.92
2023-05-14T12:19:51.228Z,3.13
2023-05-14T12:22:20.210Z,2.50
2023-05-14T12:24:53.965Z,2.58
2023-05-14T12:27:23.549Z,2.83
2023-05-14T12:29:53.373Z,2.40
2023-05-14T12:32:20.212Z,2.45
2023-05-14T12:34:46.631Z,2.75
2023-05-14T12:37:13.100Z,2.75
2023-05-14T12:39:39.516Z,2.88
2023-05-14T12:42:06.146Z,4.13
2023-05-14T12:44:32.626Z,2.40
2023-05-14T12:46:59.109Z,2.47
2023-05-14T12:49:25.847Z,2.40
2023-05-14T12:52:07.940Z,2.13
2023-05-14T12:54:42.826Z,2.40
2023-05-14T12:57:09.438Z,2.33
2023-05-14T12:59:35.968Z,4.72
2023-05-14T13:02:02.480Z,2.75
2023-05-14T13:04:29.100Z,2.20
2023-05-14T13:06:55.950Z,3.28
2023-05-14T13:09:22.388Z,2.40
2023-05-14T13:11:48.880Z,2.60
2023-05-14T13:14:15.578Z,2.70
2023-05-14T13:16:42.375Z,2.30
2023-05-14T13:19:09.331Z,2.38
2023-05-14T13:21:35.779Z,2.20
2023-05-14T13:24:02.262Z,2.60
2023-05-14T13:26:28.749Z,2.05
2023-05-14T13:28:55.235Z,2.88
2023-05-14T13:31:21.754Z,2.60
2023-05-14T13:33:48.359Z,2.08
2023-05-14T13:36:15.140Z,2.47
2023-05-14T13:38:41.803Z,2.20
2023-05-14T13:41:08.287Z,2.60
2023-05-14T13:43:35.584Z,2.40
2023-05-14T13:46:03.220Z,2.20
2023-05-14T13:48:30.931Z,2.17
2023-05-14T13:50:57.505Z,2.10
2023-05-14T13:53:25.522Z,2.85
2023-05-14T13:55:58.518Z,2.42
2023-05-14T13:58:26.609Z,1.80
2023-05-14T14:00:53.363Z,1.95
2023-05-14T14:03:20.131Z,2.05
2023-05-14T14:05:46.594Z,2.42
2023-05-14T14:08:23.247Z,1.90
2023-05-14T14:10:51.117Z,2.08
2023-05-14T14:13:17.814Z,2.10
2023-05-14T14:15:44.369Z,2.70
2023-05-14T14:18:10.981Z,2.50
2023-05-14T14:20:37.413Z,1.85
2023-05-14T14:23:03.839Z,1.95
2023-05-14T14:25:30.225Z,2.10
2023-05-14T14:27:56.805Z,1.92
2023-05-14T14:30:23.280Z,2.13
2023-05-14T14:32:49.902Z,1.77
2023-05-14T14:35:19.114Z,2.00
2023-05-14T14:40:16.614Z,1.90
2023-05-14T14:42:43.582Z,2.13
2023-05-14T14:45:10.686Z,1.75
2023-05-14T14:47:37.171Z,1.77
2023-05-14T14:50:04.362Z,1.98
2023-05-14T14:52:30.776Z,2.00
2023-05-14T14:54:57.259Z,1.70
2023-05-14T14:57:23.735Z,1.90
2023-05-14T14:59:50.318Z,1.80
2023-05-14T15:02:16.830Z,1.95
2023-05-14T15:04:43.641Z,1.80
2023-05-14T15:07:10.149Z,1.80
2023-05-14T15:09:36.632Z,1.88
2023-05-14T15:12:03.122Z,1.70
2023-05-14T15:14:29.534Z,2.08
2023-05-14T15:16:55.986Z,1.60
2023-05-14T15:19:22.570Z,1.70
2023-05-14T15:21:49.131Z,1.88
2023-05-14T15:24:15.562Z,1.77
2023-05-14T15:26:42.052Z,1.70
2023-05-14T15:29:08.614Z,1.60
2023-05-14T15:31:35.054Z,1.70
2023-05-14T15:34:01.661Z,1.73
2023-05-14T15:36:28.564Z,1.77
2023-05-14T15:38:55.028Z,1.70
2023-05-14T15:41:22.664Z,1.50
2023-05-14T15:43:49.087Z,1.60
2023-05-14T15:46:15.754Z,1.52
2023-05-14T15:48:42.264Z,1.92
2023-05-14T15:51:08.785Z,1.80
2023-05-14T15:53:35.417Z,1.50
2023-05-14T15:56:02.734Z,1.77
2023-05-14T15:58:29.153Z,1.63
2023-05-14T16:00:55.982Z,1.48
2023-05-14T16:03:22.542Z,1.40
2023-05-14T16:05:49.102Z,1.50
2023-05-14T16:08:15.630Z,1.30
2023-05-14T16:10:42.141Z,1.58
2023-05-14T16:13:08.997Z,1.42
2023-05-14T16:15:35.443Z,1.40
2023-05-14T16:18:01.914Z,1.60
2023-05-14T16:20:28.452Z,1.50
2023-05-14T16:22:54.877Z,1.48
2023-05-14T16:25:21.392Z,1.65
2023-05-14T16:27:47.824Z,1.50
2023-05-14T16:30:14.445Z,1.50
2023-05-14T16:32:42.052Z,1.67
2023-05-14T16:35:09.046Z,1.60
2023-05-14T16:37:35.852Z,1.65
2023-05-14T16:40:02.480Z,1.90
2023-05-14T16:42:29.193Z,1.48
2023-05-14T16:44:55.627Z,1.60
2023-05-14T16:47:22.083Z,1.40
2023-05-14T16:49:48.659Z,1.65
2023-05-14T16:52:15.315Z,1.50
2023-05-14T16:54:41.789Z,1.80
2023-05-14T16:57:08.212Z,1.40
2023-05-14T16:59:34.623Z,1.50
2023-05-14T17:02:01.293Z,1.55
2023-05-14T17:04:27.819Z,1.52
2023-05-14T17:06:55.223Z,1.40
2023-05-14T17:09:21.690Z,1.55
2023-05-14T17:11:48.194Z,1.63
2023-05-14T17:14:14.870Z,1.67
2023-05-14T17:16:42.291Z,1.40
2023-05-14T17:19:08.830Z,1.40
2023-05-14T17:21:35.394Z,1.42
2023-05-14T17:24:01.899Z,1.50
2023-05-14T17:26:28.322Z,1.50
2023-05-14T17:28:54.742Z,1.40
2023-05-14T17:31:22.237Z,1.42
2023-05-14T17:33:48.978Z,1.20
2023-05-14T17:36:15.457Z,1.23
2023-05-14T17:38:42.091Z,1.50
2023-05-14T17:41:08.637Z,1.13
2023-05-14T17:43:35.233Z,1.42
2023-05-14T17:46:01.733Z,1.42
2023-05-14T17:48:28.197Z,1.30
2023-05-14T17:50:54.745Z,1.20
2023-05-14T17:53:21.337Z,1.50
2023-05-14T17:55:47.959Z,1.40
2023-05-14T17:58:15.438Z,2.40
2023-05-14T18:00:42.382Z,1.50
2023-05-14T18:03:09.015Z,1.50
2023-05-14T18:05:35.729Z,1.50
2023-05-14T18:08:02.321Z,1.25
2023-05-14T18:10:29.645Z,1.55
2023-05-14T18:12:56.499Z,1.33
2023-05-14T18:15:25.394Z,1.42
2023-05-14T18:20:19.128Z,1.52
2023-05-14T18:22:45.560Z,1.80
2023-05-14T18:25:12.747Z,1.40
2023-05-14T18:27:44.135Z,1.50
2023-05-14T18:30:12.865Z,1.50
2023-05-14T18:32:40.037Z,1.70
2023-05-14T18:35:08.159Z,1.50
2023-05-14T18:37:36.522Z,1.57
2023-05-14T18:40:04.576Z,1.42
2023-05-14T18:42:31.050Z,1.40
2023-05-14T18:44:57.513Z,1.60
2023-05-14T18:47:24.013Z,1.48
2023-05-14T18:49:54.728Z,1.63
2023-05-14T18:52:22.568Z,1.67
2023-05-14T18:54:48.986Z,1.63
2023-05-14T18:57:15.408Z,1.60
2023-05-14T18:59:41.886Z,1.63
2023-05-14T19:02:08.612Z,1.58
2023-05-14T19:04:47.783Z,1.60
2023-05-14T19:07:17.369Z,1.70
2023-05-14T19:09:43.813Z,1.30
2023-05-14T19:12:10.319Z,1.52
2023-05-14T19:14:36.708Z,1.70
2023-05-14T19:17:03.282Z,1.75
2023-05-14T19:19:29.678Z,1.90
2023-05-14T19:21:56.106Z,1.60
2023-05-14T19:24:22.558Z,1.75
2023-05-14T19:26:49.321Z,1.50
2023-05-14T19:29:15.768Z,1.60
2023-05-14T19:31:42.302Z,1.40
2023-05-14T19:34:08.820Z,1.55
2023-05-14T19:36:35.342Z,1.67
2023-05-14T19:39:01.767Z,1.50
2023-05-14T19:41:28.295Z,1.63
2023-05-14T19:43:54.784Z,1.60
2023-05-14T19:46:21.321Z,1.60
2023-05-14T19:48:48.401Z,1.63
2023-05-14T19:51:14.925Z,1.67
2023-05-14T19:53:41.626Z,1.38
2023-05-14T19:56:08.118Z,1.58
2023-05-14T19:58:34.587Z,1.40
2023-05-14T20:01:01.094Z,1.63
2023-05-14T20:03:27.581Z,1.80
2023-05-14T20:05:55.359Z,1.63
2023-05-14T20:08:21.890Z,1.40
2023-05-14T20:10:48.564Z,1.52
2023-05-14T20:13:15.222Z,1.55
2023-05-14T20:15:42.058Z,1.60
2023-05-14T20:18:08.668Z,1.25
2023-05-14T20:20:35.734Z,1.50
2023-05-14T20:23:02.209Z,1.50
2023-05-14T20:25:29.033Z,1.40
2023-05-14T20:27:55.609Z,1.60
2023-05-14T20:30:22.348Z,1.50
2023-05-14T20:32:48.972Z,1.60
2023-05-14T20:35:15.495Z,1.70
2023-05-14T20:37:42.091Z,1.67
2023-05-14T20:40:14.820Z,1.60
2023-05-14T20:42:41.385Z,1.58
2023-05-14T20:45:08.418Z,1.67
2023-05-14T20:47:35.621Z,1.60
2023-05-14T20:50:02.241Z,1.80
2023-05-14T20:52:28.813Z,1.90
2023-05-14T20:54:55.441Z,2.10
2023-05-14T20:57:22.629Z,1.60
2023-05-14T20:59:49.254Z,1.77
2023-05-14T21:02:15.871Z,1.80
2023-05-14T21:04:42.743Z,1.80
2023-05-14T21:07:09.383Z,1.73
2023-05-14T21:09:36.035Z,1.75
2023-05-14T21:12:02.547Z,1.90
2023-05-14T21:14:29.045Z,1.73
2023-05-14T21:16:55.634Z,1.73
2023-05-14T21:19:22.845Z,1.95
2023-05-14T21:21:49.372Z,1.88
2023-05-14T21:24:16.776Z,1.80
2023-05-14T21:26:43.360Z,1.80
2023-05-14T21:29:09.949Z,2.20
2023-05-14T21:31:36.521Z,1.90
2023-05-14T21:34:03.128Z,2.10
2023-05-14T21:36:29.755Z,1.80
2023-05-14T21:38:56.393Z,2.00
2023-05-14T21:41:23.235Z,2.13
2023-05-14T21:43:49.794Z,1.90
2023-05-14T21:46:16.568Z,1.90
2023-05-14T21:48:43.271Z,1.70
2023-05-14T21:51:10.132Z,1.83
2023-05-14T21:53:36.981Z,2.00
2023-05-14T21:56:04.813Z,2.10
2023-05-14T21:58:31.616Z,1.98
2023-05-14T22:00:58.299Z,2.00
2023-05-14T22:03:25.018Z,1.80
2023-05-14T22:05:51.923Z,2.00
2023-05-14T22:08:18.569Z,1.95
2023-05-14T22:10:47.100Z,2.03
2023-05-14T22:13:13.784Z,1.92
2023-05-14T22:15:40.810Z,2.10
2023-05-14T22:18:07.524Z,2.10
2023-05-14T22:20:34.186Z,2.20
2023-05-14T22:23:00.726Z,1.63
2023-05-14T22:25:27.629Z,2.00
2023-05-14T22:27:54.526Z,1.83
2023-05-14T22:30:21.356Z,2.35
2023-05-14T22:32:48.130Z,2.00
2023-05-14T22:35:14.894Z,1.83
2023-05-14T22:37:41.531Z,2.20
2023-05-14T22:40:09.221Z,2.05
2023-05-14T22:42:36.026Z,2.10
2023-05-14T22:45:03.054Z,2.03
2023-05-14T22:47:31.003Z,1.98
2023-05-14T22:49:57.641Z,2.17
2023-05-14T22:52:25.765Z,2.15
2023-05-14T22:54:53.383Z,1.95
2023-05-14T22:57:20.326Z,2.20
2023-05-14T22:59:47.106Z,2.10
2023-05-14T23:02:13.849Z,2.13
2023-05-14T23:04:40.812Z,2.20
2023-05-14T23:07:08.565Z,2.47
2023-05-14T23:35:43.008Z,2.30
2023-05-14T23:38:47.866Z,2.10
